createdAt,value
2018-09-22T00:00:02.048Z,84.71
2018-09-22T00:02:30.971Z,84.73
2018-09-22T00:04:59.887Z,84.21
2018-09-22T00:07:28.867Z,83.80
2018-09-22T00:09:57.774Z,83.50
2018-09-22T00:12:26.703Z,84.32
2018-09-22T00:14:55.571Z,85.52
2018-09-22T00:17:24.564Z,85.23
2018-09-22T00:19:53.558Z,85.25
2018-09-22T00:22:22.523Z,84.96
2018-09-22T00:24:51.524Z,85.15
2018-09-22T00:27:20.608Z,84.81
2018-09-22T00:29:49.560Z,84.20
2018-09-22T00:32:18.546Z,84.01
2018-09-22T00:34:47.448Z,83.80
2018-09-22T00:37:16.326Z,84.02
2018-09-22T00:39:45.333Z,84.68
2018-09-22T00:42:14.182Z,84.33
2018-09-22T00:44:43.083Z,84.05
2018-09-22T00:47:12.030Z,83.94
2018-09-22T00:49:40.951Z,83.77
2018-09-22T00:52:10.097Z,84.78
2018-09-22T00:54:39.083Z,84.03
2018-09-22T00:57:07.959Z,83.52
2018-09-22T00:59:36.894Z,84.44
2018-09-22T01:02:07.062Z,84.08
2018-09-22T01:04:35.947Z,84.08
2018-09-22T01:07:04.896Z,84.71
2018-09-22T01:09:33.847Z,84.17
2018-09-22T01:12:02.783Z,83.82
2018-09-22T01:14:32.016Z,85.26
2018-09-22T01:17:00.877Z,86.63
2018-09-22T01:19:29.832Z,84.99
2018-09-22T01:21:58.777Z,84.28
2018-09-22T01:24:27.721Z,84.29
2018-09-22T01:26:56.588Z,83.76
2018-09-22T01:29:25.634Z,83.96
2018-09-22T01:31:54.599Z,84.14
2018-09-22T01:34:23.510Z,84.19
2018-09-22T01:36:52.658Z,84.35
2018-09-22T01:39:21.544Z,83.89
2018-09-22T01:41:50.446Z,84.31
2018-09-22T01:44:19.504Z,84.38
2018-09-22T01:46:48.424Z,84.45
2018-09-22T01:49:17.329Z,84.32
2018-09-22T01:51:46.215Z,85.43
2018-09-22T01:54:15.122Z,85.20
2018-09-22T01:56:44.092Z,84.88
2018-09-22T01:59:12.941Z,84.06
2018-09-22T02:01:41.873Z,84.08
2018-09-22T02:04:10.776Z,83.84
2018-09-22T02:06:39.626Z,83.39
2018-09-22T02:09:09.763Z,82.74
2018-09-22T02:11:40.570Z,83.06
2018-09-22T02:14:09.511Z,83.30
2018-09-22T02:16:38.383Z,83.29
2018-09-22T02:19:07.406Z,82.95
2018-09-22T02:21:36.282Z,83.30
2018-09-22T02:24:05.162Z,83.19
2018-09-22T02:26:34.268Z,83.32
2018-09-22T02:29:03.165Z,83.81
2018-09-22T02:31:32.002Z,83.79
2018-09-22T02:34:00.851Z,83.61
2018-09-22T02:36:29.720Z,84.09
2018-09-22T02:38:58.603Z,84.69
2018-09-22T02:41:27.568Z,85.00
2018-09-22T02:43:56.457Z,85.13
2018-09-22T02:46:25.365Z,85.89
2018-09-22T02:48:54.208Z,86.07
2018-09-22T02:51:23.049Z,86.38
2018-09-22T02:53:52.090Z,85.52
2018-09-22T02:56:21.009Z,85.47
2018-09-22T02:58:49.926Z,85.35
2018-09-22T03:01:18.959Z,84.62
2018-09-22T03:03:47.852Z,84.74
2018-09-22T03:06:16.760Z,84.63
2018-09-22T03:08:45.683Z,85.45
2018-09-22T03:11:14.567Z,85.26
2018-09-22T03:13:43.468Z,85.40
2018-09-22T03:16:12.421Z,84.45
2018-09-22T03:18:41.252Z,84.34
2018-09-22T03:21:10.059Z,85.11
2018-09-22T03:23:39.011Z,84.82
2018-09-22T03:26:08.323Z,84.71
2018-09-22T03:28:37.220Z,84.43
2018-09-22T03:31:06.165Z,84.52
2018-09-22T03:33:35.059Z,85.20
2018-09-22T03:36:03.914Z,85.06
2018-09-22T03:38:32.835Z,85.95
2018-09-22T03:41:01.695Z,85.75
2018-09-22T03:43:30.595Z,85.62
2018-09-22T03:45:59.539Z,84.67
2018-09-22T03:48:28.458Z,85.03
2018-09-22T03:50:57.400Z,84.12
2018-09-22T03:53:26.255Z,84.24
2018-09-22T03:55:57.899Z,84.86
2018-09-22T03:58:26.839Z,85.62
2018-09-22T04:00:55.692Z,85.27
2018-09-22T04:03:24.597Z,85.39
2018-09-22T04:05:54.878Z,85.95
2018-09-22T04:08:23.788Z,85.41
2018-09-22T04:10:52.611Z,85.12
2018-09-22T04:13:21.495Z,85.57
2018-09-22T04:15:50.348Z,85.48
2018-09-22T04:18:19.228Z,85.31
2018-09-22T04:20:50.151Z,85.02
2018-09-22T04:23:19.032Z,85.38
2018-09-22T04:25:47.963Z,85.96
2018-09-22T04:28:16.887Z,85.86
2018-09-22T04:30:45.879Z,86.17
2018-09-22T04:33:14.782Z,86.34
2018-09-22T04:35:43.735Z,86.49
2018-09-22T04:38:12.719Z,86.51
2018-09-22T04:40:41.701Z,86.32
2018-09-22T04:43:10.783Z,85.71
2018-09-22T04:45:39.726Z,85.73
2018-09-22T04:48:08.648Z,85.55
2018-09-22T04:50:37.593Z,86.65
2018-09-22T04:53:06.477Z,85.99
2018-09-22T04:55:35.385Z,86.37
2018-09-22T04:58:04.378Z,85.85
2018-09-22T05:00:33.256Z,85.56
2018-09-22T05:03:02.175Z,85.08
2018-09-22T05:05:32.267Z,85.11
2018-09-22T05:08:01.236Z,84.83
2018-09-22T05:10:30.127Z,84.25
2018-09-22T05:12:59.091Z,84.65
2018-09-22T05:15:28.127Z,84.57
2018-09-22T05:17:57.012Z,84.02
2018-09-22T05:20:25.901Z,84.42
2018-09-22T05:22:54.915Z,84.75
2018-09-22T05:25:23.886Z,84.85
2018-09-22T05:27:52.831Z,84.95
2018-09-22T05:30:21.770Z,84.10
2018-09-22T05:32:50.717Z,84.17
2018-09-22T05:35:19.579Z,84.45
2018-09-22T05:37:48.512Z,84.06
2018-09-22T05:40:17.428Z,84.12
2018-09-22T05:42:46.287Z,84.41
2018-09-22T05:45:15.259Z,84.39
2018-09-22T05:47:44.193Z,84.36
2018-09-22T05:50:13.144Z,83.48
2018-09-22T05:52:42.078Z,82.82
2018-09-22T05:55:11.103Z,82.78
2018-09-22T05:57:40.007Z,82.95
2018-09-22T06:00:09.118Z,83.09
2018-09-22T06:02:38.005Z,82.31
2018-09-22T06:05:06.901Z,82.02
2018-09-22T06:07:35.898Z,81.43
2018-09-22T06:10:04.835Z,81.72
2018-09-22T06:12:33.760Z,82.08
2018-09-22T06:15:02.668Z,82.07
2018-09-22T06:17:31.545Z,82.50
2018-09-22T06:20:00.475Z,80.97
2018-09-22T06:22:29.361Z,80.59
2018-09-22T06:24:59.667Z,80.81
2018-09-22T06:27:28.599Z,79.65
2018-09-22T06:29:57.555Z,79.26
2018-09-22T06:32:26.463Z,78.04
2018-09-22T06:34:55.495Z,76.47
2018-09-22T06:37:24.442Z,75.70
2018-09-22T06:39:53.563Z,75.03
2018-09-22T06:42:22.410Z,74.22
2018-09-22T06:44:51.544Z,74.70
2018-09-22T06:47:20.562Z,74.43
2018-09-22T06:49:49.397Z,73.71
2018-09-22T06:52:18.332Z,73.24
2018-09-22T06:54:47.279Z,72.12
2018-09-22T06:57:16.315Z,72.30
2018-09-22T06:59:45.314Z,71.44
2018-09-22T07:02:14.266Z,70.69
2018-09-22T07:04:43.231Z,70.50
2018-09-22T07:07:12.209Z,69.86
2018-09-22T07:09:42.484Z,69.36
2018-09-22T07:12:11.399Z,67.99
2018-09-22T07:14:40.370Z,67.85
2018-09-22T07:17:10.991Z,67.06
2018-09-22T07:19:40.050Z,66.99
2018-09-22T07:22:15.577Z,68.15
2018-09-22T07:24:44.534Z,67.76
2018-09-22T07:27:13.492Z,66.92
2018-09-22T07:29:42.575Z,66.41
2018-09-22T07:32:11.572Z,65.79
2018-09-22T07:34:40.647Z,65.33
2018-09-22T07:37:10.982Z,65.28
2018-09-22T07:39:39.834Z,65.48
2018-09-22T07:42:08.729Z,65.14
2018-09-22T07:44:37.643Z,64.94
2018-09-22T07:47:06.985Z,64.80
2018-09-22T07:49:36.030Z,64.94
2018-09-22T07:52:05.088Z,64.91
2018-09-22T07:54:35.483Z,64.99
2018-09-22T07:57:04.377Z,64.68
2018-09-22T07:59:33.317Z,65.15
2018-09-22T08:02:02.319Z,64.75
2018-09-22T08:04:31.174Z,65.02
2018-09-22T08:07:00.098Z,65.54
2018-09-22T08:09:29.043Z,65.18
2018-09-22T08:11:57.966Z,64.98
2018-09-22T08:14:28.474Z,64.56
2018-09-22T08:16:57.586Z,64.46
2018-09-22T08:19:26.423Z,63.54
2018-09-22T08:21:55.419Z,63.29
2018-09-22T08:24:24.376Z,64.89
2018-09-22T08:26:53.507Z,63.57
2018-09-22T08:29:22.480Z,62.83
2018-09-22T08:31:51.466Z,62.36
2018-09-22T08:34:21.754Z,61.87
2018-09-22T08:36:50.747Z,60.47
2018-09-22T08:39:19.649Z,60.60
2018-09-22T08:41:48.630Z,60.54
2018-09-22T08:44:17.567Z,61.19
2018-09-22T08:46:46.450Z,61.37
2018-09-22T08:49:15.307Z,60.99
2018-09-22T08:51:44.405Z,60.48
2018-09-22T08:54:13.289Z,60.58
2018-09-22T08:56:42.174Z,59.95
2018-09-22T08:59:11.218Z,59.23
2018-09-22T09:01:40.527Z,59.45
2018-09-22T09:04:09.538Z,59.54
2018-09-22T09:06:38.458Z,59.54
2018-09-22T09:09:08.862Z,59.29
2018-09-22T09:11:37.768Z,58.92
2018-09-22T09:14:06.961Z,58.18
2018-09-22T09:16:35.892Z,59.57
2018-09-22T09:19:05.207Z,57.63
2018-09-22T09:21:34.099Z,56.62
2018-09-22T09:24:03.022Z,56.02
2018-09-22T09:26:31.962Z,55.87
2018-09-22T09:29:01.064Z,54.95
2018-09-22T09:31:30.011Z,53.49
2018-09-22T09:33:59.005Z,53.27
2018-09-22T09:36:27.931Z,53.19
2018-09-22T09:39:00.136Z,50.94
2018-09-22T09:41:29.119Z,52.97
2018-09-22T09:43:58.043Z,53.50
2018-09-22T09:46:27.224Z,52.17
2018-09-22T09:48:56.250Z,49.91
2018-09-22T09:51:25.149Z,49.00
2018-09-22T09:53:54.002Z,49.55
2018-09-22T09:56:22.872Z,48.67
2018-09-22T09:58:51.842Z,48.83
2018-09-22T10:01:20.749Z,49.61
2018-09-22T10:03:49.928Z,50.26
2018-09-22T10:06:18.996Z,50.73
2018-09-22T10:08:47.852Z,50.61
2018-09-22T10:11:16.755Z,51.12
2018-09-22T10:13:45.797Z,51.11
2018-09-22T10:16:14.665Z,50.89
2018-09-22T10:18:43.781Z,50.81
2018-09-22T10:21:12.850Z,50.17
2018-09-22T10:23:41.723Z,51.61
2018-09-22T10:26:10.780Z,50.93
2018-09-22T10:28:39.804Z,50.27
2018-09-22T10:31:08.641Z,50.22
2018-09-22T10:33:37.591Z,49.74
2018-09-22T10:36:06.555Z,50.07
2018-09-22T10:38:35.508Z,50.56
2018-09-22T10:41:04.512Z,50.96
2018-09-22T10:43:33.536Z,49.68
2018-09-22T10:46:03.213Z,49.51
2018-09-22T10:48:32.123Z,51.05
2018-09-22T10:51:01.090Z,50.93
2018-09-22T10:53:29.995Z,50.54
2018-09-22T10:55:58.955Z,51.09
2018-09-22T10:58:29.083Z,51.19
2018-09-22T11:00:57.996Z,50.29
2018-09-22T11:03:27.025Z,50.69
2018-09-22T11:05:57.196Z,51.15
2018-09-22T11:08:26.045Z,51.47
2018-09-22T11:10:54.964Z,51.20
2018-09-22T11:13:24.040Z,50.64
2018-09-22T11:15:53.007Z,49.83
2018-09-22T11:18:21.976Z,49.73
2018-09-22T11:20:51.411Z,50.45
2018-09-22T11:23:20.565Z,49.89
2018-09-22T11:25:49.601Z,49.27
2018-09-22T11:28:18.573Z,48.54
2018-09-22T11:30:47.506Z,47.75
2018-09-22T11:33:17.180Z,48.19
2018-09-22T11:35:47.648Z,48.87
2018-09-22T11:38:16.640Z,49.13
2018-09-22T11:40:45.594Z,48.39
2018-09-22T11:43:15.789Z,48.35
2018-09-22T11:45:44.944Z,47.26
2018-09-22T11:48:13.946Z,46.77
2018-09-22T11:50:42.995Z,47.50
2018-09-22T11:53:11.895Z,46.81
2018-09-22T11:55:40.860Z,46.55
2018-09-22T11:58:11.133Z,46.72
2018-09-22T12:00:40.059Z,46.69
2018-09-22T12:03:08.975Z,47.71
2018-09-22T12:05:38.065Z,47.21
2018-09-22T12:08:06.999Z,46.76
2018-09-22T12:10:35.991Z,49.09
2018-09-22T12:13:06.352Z,48.84
2018-09-22T12:15:35.330Z,50.77
2018-09-22T12:18:04.270Z,48.22
2018-09-22T12:20:33.284Z,49.05
2018-09-22T12:23:02.265Z,49.93
2018-09-22T12:25:32.558Z,48.29
2018-09-22T12:28:02.737Z,48.21
2018-09-22T12:30:31.650Z,48.17
2018-09-22T12:33:00.561Z,47.91
2018-09-22T12:35:31.096Z,47.87
2018-09-22T12:38:00.036Z,47.74
2018-09-22T12:40:29.000Z,48.79
2018-09-22T12:42:59.200Z,48.47
2018-09-22T12:45:28.341Z,48.79
2018-09-22T12:47:57.267Z,49.32
2018-09-22T12:50:26.322Z,49.61
2018-09-22T12:52:56.539Z,49.50
2018-09-22T12:55:25.513Z,50.58
2018-09-22T12:57:54.530Z,50.18
2018-09-22T13:00:23.637Z,51.10
2018-09-22T13:02:52.579Z,50.22
2018-09-22T13:05:21.756Z,48.79
2018-09-22T13:07:50.834Z,45.16
2018-09-22T13:10:19.806Z,44.44
2018-09-22T13:12:48.790Z,43.76
2018-09-22T13:15:17.902Z,42.75
2018-09-22T13:17:46.860Z,42.75
2018-09-22T13:20:15.881Z,42.57
2018-09-22T13:22:44.952Z,42.86
2018-09-22T13:25:13.913Z,43.26
2018-09-22T13:27:44.241Z,42.88
2018-09-22T13:30:13.167Z,41.81
2018-09-22T13:32:42.129Z,39.80
2018-09-22T13:35:11.140Z,41.15
2018-09-22T13:37:40.061Z,42.17
2018-09-22T13:40:09.052Z,43.42
2018-09-22T13:42:44.547Z,44.95
2018-09-22T13:45:13.545Z,45.08
2018-09-22T13:47:42.515Z,43.82
2018-09-22T13:50:12.984Z,41.58
2018-09-22T13:52:41.918Z,41.59
2018-09-22T13:55:10.941Z,43.74
2018-09-22T13:57:39.914Z,45.18
2018-09-22T14:00:08.985Z,45.50
2018-09-22T14:02:37.979Z,46.03
2018-09-22T14:05:07.020Z,44.32
2018-09-22T14:07:36.264Z,44.58
2018-09-22T14:10:05.463Z,45.16
2018-09-22T14:12:34.453Z,44.19
2018-09-22T14:15:03.457Z,43.38
2018-09-22T14:17:32.387Z,43.26
2018-09-22T14:20:01.321Z,45.73
2018-09-22T14:22:30.313Z,46.87
2018-09-22T14:24:59.269Z,46.79
2018-09-22T14:27:29.624Z,46.00
2018-09-22T14:29:59.009Z,44.74
2018-09-22T14:32:27.966Z,46.10
2018-09-22T14:34:56.989Z,44.64
2018-09-22T14:37:25.940Z,46.12
2018-09-22T14:39:54.956Z,43.71
2018-09-22T14:42:23.903Z,43.48
2018-09-22T14:44:52.908Z,46.91
2018-09-22T14:47:21.879Z,48.61
2018-09-22T14:49:50.870Z,48.11
2018-09-22T14:52:19.860Z,46.88
2018-09-22T14:54:48.864Z,48.90
2018-09-22T14:57:17.817Z,47.85
2018-09-22T14:59:46.731Z,48.84
2018-09-22T15:02:15.695Z,47.97
2018-09-22T15:04:44.640Z,48.60
2018-09-22T15:07:13.557Z,50.32
2018-09-22T15:09:42.573Z,49.19
2018-09-22T15:12:11.518Z,47.38
2018-09-22T15:14:40.647Z,47.42
2018-09-22T15:17:09.621Z,48.42
2018-09-22T15:19:38.558Z,48.25
2018-09-22T15:22:07.879Z,47.72
2018-09-22T15:24:38.576Z,47.98
2018-09-22T15:27:07.755Z,49.46
2018-09-22T15:29:36.733Z,48.61
2018-09-22T15:32:07.192Z,49.60
2018-09-22T15:34:36.175Z,50.81
2018-09-22T15:37:05.336Z,51.04
2018-09-22T15:39:34.344Z,53.38
2018-09-22T15:42:03.324Z,53.67
2018-09-22T15:44:33.618Z,54.02
2018-09-22T15:47:04.004Z,55.96
2018-09-22T15:49:33.577Z,56.54
2018-09-22T15:52:02.597Z,57.40
2018-09-22T15:54:31.600Z,59.21
2018-09-22T15:57:00.711Z,60.02
2018-09-22T15:59:29.725Z,60.23
2018-09-22T16:01:58.710Z,60.19
2018-09-22T16:04:27.902Z,61.00
2018-09-22T16:06:58.530Z,61.76
2018-09-22T16:09:27.659Z,62.90
2018-09-22T16:11:58.013Z,63.20
2018-09-22T16:14:28.411Z,63.88
2018-09-22T16:16:57.413Z,63.99
2018-09-22T16:19:26.639Z,63.63
2018-09-22T16:21:56.843Z,64.12
2018-09-22T16:24:25.814Z,64.53
2018-09-22T16:26:54.801Z,64.78
2018-09-22T16:29:23.845Z,64.76
2018-09-22T16:31:54.135Z,64.71
2018-09-22T16:34:23.157Z,64.21
2018-09-22T16:36:52.115Z,63.93
2018-09-22T16:39:21.163Z,64.13
2018-09-22T16:41:50.203Z,64.40
2018-09-22T16:44:19.186Z,64.35
2018-09-22T16:46:49.556Z,65.01
2018-09-22T16:49:18.553Z,64.90
2018-09-22T16:51:47.499Z,64.79
2018-09-22T16:54:17.740Z,65.76
2018-09-22T16:56:46.788Z,66.00
2018-09-22T16:59:15.821Z,66.79
2018-09-22T17:01:44.805Z,66.59
2018-09-22T17:04:13.840Z,67.27
2018-09-22T17:06:42.824Z,66.97
2018-09-22T17:09:11.802Z,66.86
2018-09-22T17:11:40.772Z,66.78
2018-09-22T17:14:09.756Z,65.59
2018-09-22T17:16:38.788Z,66.12
2018-09-22T17:19:08.101Z,65.97
2018-09-22T17:21:37.065Z,65.79
2018-09-22T17:24:06.088Z,66.06
2018-09-22T17:26:35.124Z,66.69
2018-09-22T17:29:04.100Z,66.69
2018-09-22T17:31:33.091Z,66.69
2018-09-22T17:34:03.637Z,67.28
2018-09-22T17:36:32.678Z,67.36
2018-09-22T17:39:01.670Z,68.05
2018-09-22T17:41:30.703Z,68.36
2018-09-22T17:43:59.668Z,68.26
2018-09-22T17:46:28.702Z,68.71
2018-09-22T17:48:57.848Z,68.61
2018-09-22T17:51:26.820Z,68.57
2018-09-22T17:53:55.996Z,68.55
2018-09-22T17:56:25.040Z,68.58
2018-09-22T17:58:53.998Z,68.90
2018-09-22T18:01:23.012Z,69.60
2018-09-22T18:03:52.097Z,69.25
2018-09-22T18:06:21.191Z,70.06
2018-09-22T18:08:50.179Z,69.81
2018-09-22T18:11:19.245Z,70.35
2018-09-22T18:13:48.205Z,70.58
2018-09-22T18:16:17.319Z,70.93
2018-09-22T18:18:46.340Z,71.02
2018-09-22T18:21:15.459Z,71.07
2018-09-22T18:23:44.473Z,71.63
2018-09-22T18:26:13.468Z,71.55
2018-09-22T18:28:42.537Z,71.93
2018-09-22T18:31:11.580Z,72.01
2018-09-22T18:33:40.580Z,72.41
2018-09-22T18:36:09.554Z,72.27
2018-09-22T18:38:38.506Z,71.06
2018-09-22T18:41:07.533Z,72.69
2018-09-22T18:43:36.578Z,73.33
2018-09-22T18:46:05.539Z,73.35
2018-09-22T18:48:35.848Z,73.04
2018-09-22T18:51:06.270Z,72.62
2018-09-22T18:53:35.302Z,73.29
2018-09-22T18:56:04.304Z,72.83
2018-09-22T18:58:34.671Z,73.12
2018-09-22T19:01:03.635Z,73.09
2018-09-22T19:03:32.630Z,72.92
2018-09-22T19:06:02.956Z,72.86
2018-09-22T19:08:31.924Z,73.67
2018-09-22T19:11:00.887Z,74.15
2018-09-22T19:13:32.631Z,74.79
2018-09-22T19:16:12.056Z,75.66
2018-09-22T19:18:51.732Z,74.81
2018-09-22T19:21:30.808Z,74.99
2018-09-22T19:24:02.661Z,74.55
2018-09-22T19:26:35.286Z,74.45
2018-09-22T19:29:12.050Z,74.63
2018-09-22T19:31:45.618Z,74.48
2018-09-22T19:34:17.698Z,73.78
2018-09-22T19:37:03.712Z,74.19
2018-09-22T19:39:43.160Z,74.46
2018-09-22T19:42:16.684Z,74.45
2018-09-22T19:44:51.877Z,74.31
2018-09-22T19:47:30.287Z,73.62
2018-09-22T19:50:04.267Z,74.03
2018-09-22T19:52:38.621Z,73.89
2018-09-22T19:55:08.871Z,74.21
2018-09-22T19:57:37.893Z,74.02
2018-09-22T20:00:07.386Z,74.65
2018-09-22T20:02:36.364Z,74.80
2018-09-22T20:05:05.376Z,74.43
2018-09-22T20:07:34.581Z,74.97
2018-09-22T20:10:05.091Z,74.85
2018-09-22T20:12:34.063Z,75.33
2018-09-22T20:15:03.042Z,75.05
2018-09-22T20:17:32.138Z,74.96
2018-09-22T20:20:01.082Z,74.78
2018-09-22T20:22:30.032Z,75.25
2018-09-22T20:25:00.355Z,75.52
2018-09-22T20:27:30.280Z,75.65
2018-09-22T20:29:59.230Z,75.68
2018-09-22T20:32:29.393Z,75.86
2018-09-22T20:34:58.383Z,77.21
2018-09-22T20:37:27.384Z,77.29
2018-09-22T20:39:56.372Z,77.81
2018-09-22T20:42:25.365Z,76.35
2018-09-22T20:44:54.309Z,75.19
2018-09-22T20:47:23.227Z,76.08
2018-09-22T20:49:52.391Z,77.56
2018-09-22T20:52:21.309Z,77.65
2018-09-22T20:54:50.240Z,77.41
2018-09-22T20:57:20.475Z,78.34
2018-09-22T20:59:49.408Z,78.01
2018-09-22T21:02:18.425Z,77.74
2018-09-22T21:04:47.404Z,78.34
2018-09-22T21:07:16.327Z,77.69
2018-09-22T21:09:45.260Z,77.39
2018-09-22T21:12:14.255Z,77.91
2018-09-22T21:14:43.193Z,78.34
2018-09-22T21:17:12.170Z,78.30
2018-09-22T21:19:41.127Z,78.43
2018-09-22T21:22:10.261Z,77.80
2018-09-22T21:24:39.178Z,77.75
2018-09-22T21:27:08.128Z,78.26
2018-09-22T21:29:37.078Z,78.13
2018-09-22T21:32:06.144Z,77.52
2018-09-22T21:34:35.103Z,77.66
2018-09-22T21:37:04.032Z,77.92
2018-09-22T21:39:34.276Z,78.15
2018-09-22T21:42:03.201Z,78.53
2018-09-22T21:44:32.111Z,78.56
2018-09-22T21:47:01.116Z,79.29
2018-09-22T21:49:30.037Z,79.71
2018-09-22T21:51:59.097Z,80.02
2018-09-22T21:54:28.063Z,79.91
2018-09-22T21:56:56.940Z,80.50
2018-09-22T21:59:25.935Z,79.69
2018-09-22T22:01:54.903Z,79.24
2018-09-22T22:04:23.851Z,79.61
2018-09-22T22:06:52.771Z,78.69
2018-09-22T22:09:23.076Z,78.12
2018-09-22T22:11:51.988Z,77.58
2018-09-22T22:14:20.912Z,78.33
2018-09-22T22:16:49.912Z,78.66
2018-09-22T22:19:18.855Z,78.21
2018-09-22T22:21:47.827Z,78.34
2018-09-22T22:24:16.820Z,78.11
2018-09-22T22:26:45.762Z,77.64
2018-09-22T22:29:14.711Z,78.01
2018-09-22T22:31:43.770Z,78.19
2018-09-22T22:34:12.771Z,77.87
2018-09-22T22:36:41.724Z,77.46
2018-09-22T22:39:12.040Z,77.96
2018-09-22T22:41:40.963Z,77.00
2018-09-22T22:44:09.980Z,77.49
2018-09-22T22:46:39.005Z,77.95
2018-09-22T22:49:07.952Z,77.59
2018-09-22T22:51:38.099Z,77.65
2018-09-22T22:54:07.135Z,78.09
2018-09-22T22:56:36.039Z,78.00
2018-09-22T22:59:04.964Z,76.67
2018-09-22T23:01:33.870Z,76.72
2018-09-22T23:04:03.046Z,77.17
2018-09-22T23:06:31.962Z,76.19
2018-09-22T23:09:00.860Z,76.43
2018-09-22T23:11:29.839Z,76.25
2018-09-22T23:13:58.823Z,75.94
2018-09-22T23:16:27.740Z,74.11
2018-09-22T23:18:56.618Z,74.96
2018-09-22T23:21:25.463Z,73.46
2018-09-22T23:23:54.419Z,73.11
2018-09-22T23:26:24.712Z,72.91
2018-09-22T23:28:53.561Z,73.53
2018-09-22T23:31:22.383Z,73.95
2018-09-22T23:33:51.352Z,74.24
2018-09-22T23:36:20.220Z,74.45
2018-09-22T23:38:49.104Z,73.22
2018-09-22T23:41:18.019Z,73.21
2018-09-22T23:43:46.933Z,72.60
2018-09-22T23:46:15.964Z,71.65
2018-09-22T23:48:44.879Z,70.33
2018-09-22T23:51:13.820Z,70.17
2018-09-22T23:53:42.711Z,71.14
2018-09-22T23:56:11.665Z,71.50
2018-09-22T23:58:40.555Z,71.18
